createdAt,value
2023-04-03T00:01:21.361Z,96555.47
2023-04-03T00:03:49.760Z,96518.97
2023-04-03T00:06:18.172Z,96562.03
2023-04-03T00:08:47.972Z,96528.81
2023-04-03T00:11:17.366Z,96571.13
2023-04-03T00:13:46.097Z,96562.16
2023-04-03T00:16:14.852Z,96557.22
2023-04-03T00:18:43.711Z,96550.03
2023-04-03T00:21:15.023Z,96560.47
2023-04-03T00:23:43.573Z,96561.53
2023-04-03T00:26:13.423Z,96560.13
2023-04-03T00:28:42.036Z,96566.16
2023-04-03T00:31:10.601Z,96569.34
2023-04-03T00:33:39.340Z,96567.22
2023-04-03T00:36:10.209Z,96572.16
2023-04-03T00:38:39.056Z,96576.69
2023-04-03T00:41:07.603Z,96575.66
2023-04-03T00:43:37.374Z,96581.47
2023-04-03T00:46:06.008Z,96519.28
2023-04-03T00:48:36.927Z,96551.31
2023-04-03T00:51:07.991Z,96556.78
2023-04-03T00:53:41.910Z,96584.28
2023-04-03T00:56:13.160Z,96575.16
2023-04-03T00:58:47.769Z,96577.25
2023-04-03T01:01:21.143Z,96574.03
2023-04-03T01:03:49.517Z,96577.84
2023-04-03T01:06:21.571Z,96550.53
2023-04-03T01:08:52.143Z,96581.84
2023-04-03T01:11:22.104Z,96573.81
2023-04-03T01:13:51.970Z,96575.78
2023-04-03T01:16:20.852Z,96569.88
2023-04-03T01:18:49.390Z,96570.34
2023-04-03T01:21:52.644Z,96566.47
2023-04-03T01:24:30.401Z,96514.50
2023-04-03T01:26:58.761Z,96569.72
2023-04-03T01:29:28.517Z,96570.63
2023-04-03T01:31:59.486Z,96569.97
2023-04-03T01:34:28.746Z,96575.28
2023-04-03T01:36:57.316Z,96578.06
2023-04-03T01:39:25.996Z,96577.03
2023-04-03T01:41:54.489Z,96574.88
2023-04-03T01:44:22.831Z,96582.84
2023-04-03T01:46:51.083Z,96583.38
2023-04-03T01:49:21.148Z,96588.47
2023-04-03T01:51:49.478Z,96582.25
2023-04-03T01:54:17.839Z,96584.34
2023-04-03T01:56:46.097Z,96580.97
2023-04-03T01:59:14.796Z,96586.75
2023-04-03T02:01:43.202Z,96591.38
2023-04-03T02:04:11.896Z,96591.72
2023-04-03T02:06:41.769Z,96585.38
2023-04-03T02:09:10.097Z,96593.78
2023-04-03T02:11:38.619Z,96581.00
2023-04-03T02:14:07.062Z,96598.50
2023-04-03T02:16:35.426Z,96601.13
2023-04-03T02:19:03.808Z,96602.41
2023-04-03T02:21:32.117Z,96599.66
2023-04-03T02:24:03.013Z,96608.28
2023-04-03T02:26:31.338Z,96608.97
2023-04-03T02:28:59.614Z,96603.63
2023-04-03T02:31:28.402Z,96600.75
2023-04-03T02:33:56.852Z,96606.63
2023-04-03T02:36:25.298Z,96604.94
2023-04-03T02:38:53.624Z,96615.88
2023-04-03T02:41:23.467Z,96608.75
2023-04-03T02:43:51.770Z,96613.50
2023-04-03T02:46:20.249Z,96572.03
2023-04-03T02:48:48.588Z,96608.75
2023-04-03T02:51:16.920Z,96608.13
2023-04-03T02:53:45.656Z,96604.28
2023-04-03T02:56:14.036Z,96604.94
2023-04-03T02:58:43.966Z,96565.13
2023-04-03T03:01:12.540Z,96592.41
2023-04-03T03:03:40.907Z,96568.75
2023-04-03T03:06:11.673Z,96608.84
2023-04-03T03:08:40.347Z,96611.69
2023-04-03T03:11:09.420Z,96613.59
2023-04-03T03:13:38.213Z,96609.03
2023-04-03T03:16:09.242Z,96588.69
2023-04-03T03:18:38.375Z,96613.31
2023-04-03T03:21:07.305Z,96617.97
2023-04-03T03:23:36.113Z,96620.00
2023-04-03T03:26:06.982Z,96614.50
2023-04-03T03:28:36.210Z,96614.75
2023-04-03T03:31:05.030Z,96610.13
2023-04-03T03:33:34.844Z,96605.09
2023-04-03T03:36:03.288Z,96617.16
2023-04-03T03:38:31.786Z,96607.63
2023-04-03T03:41:00.131Z,96561.50
2023-04-03T03:43:28.414Z,96612.09
2023-04-03T03:45:57.033Z,96615.22
2023-04-03T03:48:25.961Z,96616.13
2023-04-03T03:50:55.810Z,96618.44
2023-04-03T03:53:24.119Z,96616.38
2023-04-03T03:55:52.454Z,96617.59
2023-04-03T03:58:20.742Z,96617.47
2023-04-03T04:00:49.390Z,96626.16
2023-04-03T04:03:17.970Z,96614.53
2023-04-03T04:05:46.643Z,96561.56
2023-04-03T04:08:16.364Z,96597.88
2023-04-03T04:10:44.692Z,96631.22
2023-04-03T04:13:12.943Z,96633.94
2023-04-03T04:15:41.373Z,96627.19
2023-04-03T04:18:09.659Z,96629.78
2023-04-03T04:20:38.474Z,96628.88
2023-04-03T04:23:06.778Z,96633.50
2023-04-03T04:25:36.936Z,96623.47
2023-04-03T04:28:05.378Z,96629.75
2023-04-03T04:30:33.741Z,96631.25
2023-04-03T04:33:02.211Z,96632.06
2023-04-03T04:35:30.579Z,96647.34
2023-04-03T04:37:58.947Z,96639.22
2023-04-03T04:40:27.350Z,96644.50
2023-04-03T04:42:57.163Z,96648.41
2023-04-03T04:45:25.630Z,96643.22
2023-04-03T04:47:54.013Z,96643.38
2023-04-03T04:50:22.365Z,96619.31
2023-04-03T04:52:50.867Z,96649.81
2023-04-03T04:55:19.419Z,96648.66
2023-04-03T04:57:47.862Z,96649.00
2023-04-03T05:00:18.895Z,96637.28
2023-04-03T05:02:47.250Z,96650.91
2023-04-03T05:05:16.034Z,96660.41
2023-04-03T05:07:44.412Z,96657.69
2023-04-03T05:10:12.742Z,96661.94
2023-04-03T05:12:41.721Z,96661.16
2023-04-03T05:15:11.488Z,96647.59
2023-04-03T05:17:41.205Z,96661.94
2023-04-03T05:20:10.306Z,96657.13
2023-04-03T05:22:38.628Z,96659.72
2023-04-03T05:25:08.344Z,96660.19
2023-04-03T05:27:36.849Z,96670.03
2023-04-03T05:30:06.010Z,96646.34
2023-04-03T05:32:35.127Z,96671.19
2023-04-03T05:35:05.535Z,96671.97
2023-04-03T05:37:34.164Z,96677.22
2023-04-03T05:40:02.549Z,96671.13
2023-04-03T05:42:31.042Z,96570.13
2023-04-03T05:44:59.361Z,96677.84
2023-04-03T05:47:27.810Z,96654.47
2023-04-03T05:49:56.116Z,96676.88
2023-04-03T05:52:29.545Z,96672.25
2023-04-03T05:54:58.219Z,96678.97
2023-04-03T05:57:26.701Z,96682.97
2023-04-03T05:59:55.287Z,96695.25
2023-04-03T06:02:25.625Z,96692.50
2023-04-03T06:04:54.354Z,96703.44
2023-04-03T06:07:24.894Z,96690.81
2023-04-03T06:09:54.650Z,96705.16
2023-04-03T06:12:22.898Z,96707.25
2023-04-03T06:14:52.263Z,96710.78
2023-04-03T06:17:21.444Z,96712.59
2023-04-03T06:19:50.765Z,96707.22
2023-04-03T06:22:19.125Z,96710.38
2023-04-03T06:24:47.730Z,96709.50
2023-04-03T06:27:17.953Z,96707.38
2023-04-03T06:29:46.793Z,96699.44
2023-04-03T06:32:15.122Z,96657.16
2023-04-03T06:34:43.861Z,96679.03
2023-04-03T06:37:17.505Z,96715.63
2023-04-03T06:39:46.350Z,96716.47
2023-04-03T06:42:17.209Z,96714.25
2023-04-03T06:44:45.910Z,96705.50
2023-04-03T06:47:15.166Z,96717.94
2023-04-03T06:49:44.167Z,96725.53
2023-04-03T06:52:14.291Z,96724.50
2023-04-03T06:54:42.976Z,96581.66
2023-04-03T06:57:11.711Z,96736.59
2023-04-03T06:59:41.843Z,96720.38
2023-04-03T07:02:12.463Z,96733.44
2023-04-03T07:04:41.156Z,96738.47
2023-04-03T07:07:10.228Z,96743.84
2023-04-03T07:09:38.660Z,96761.31
2023-04-03T07:12:07.331Z,96747.28
2023-04-03T07:14:35.709Z,96750.47
2023-04-03T07:17:05.508Z,96757.91
2023-04-03T07:19:34.005Z,96758.31
2023-04-03T07:22:02.354Z,96765.19
2023-04-03T07:24:30.674Z,96772.94
2023-04-03T07:26:58.968Z,96769.97
2023-04-03T07:29:27.544Z,96763.53
2023-04-03T07:31:56.573Z,96776.44
2023-04-03T07:34:26.460Z,96776.44
2023-04-03T07:36:54.782Z,96782.13
2023-04-03T07:39:23.030Z,96782.28
2023-04-03T07:41:51.577Z,96784.84
2023-04-03T07:44:19.956Z,96787.66
2023-04-03T07:46:48.260Z,96780.06
2023-04-03T07:49:17.991Z,96740.66
2023-04-03T07:51:48.034Z,96786.72
2023-04-03T07:54:16.426Z,96794.75
2023-04-03T07:56:44.994Z,96767.94
2023-04-03T07:59:13.625Z,96801.31
2023-04-03T08:01:41.883Z,96797.75
2023-04-03T08:04:10.556Z,96792.94
2023-04-03T08:06:46.618Z,96813.56
2023-04-03T08:09:17.594Z,96796.47
2023-04-03T08:11:46.625Z,96813.19
2023-04-03T08:14:19.689Z,96809.88
2023-04-03T08:16:49.510Z,96817.59
2023-04-03T08:19:26.113Z,96813.63
2023-04-03T08:21:55.715Z,96826.72
2023-04-03T08:24:25.559Z,96826.25
2023-04-03T08:26:54.049Z,96823.91
2023-04-03T08:29:22.419Z,96815.41
2023-04-03T08:31:51.321Z,96826.41
2023-04-03T08:34:20.292Z,96828.19
2023-04-03T08:36:48.757Z,96829.41
2023-04-03T08:39:17.041Z,96830.56
2023-04-03T08:41:49.134Z,96829.59
2023-04-03T08:44:27.203Z,96822.66
2023-04-03T08:47:09.719Z,96831.66
2023-04-03T08:49:48.299Z,96828.28
2023-04-03T08:52:20.178Z,96826.91
2023-04-03T08:54:53.658Z,96781.56
2023-04-03T08:57:31.944Z,96826.38
2023-04-03T09:00:03.973Z,96810.34
2023-04-03T09:02:37.767Z,96781.38
2023-04-03T09:05:14.910Z,96834.97
2023-04-03T09:07:49.313Z,96826.84
2023-04-03T09:10:22.016Z,96827.47
2023-04-03T09:13:00.455Z,96819.69
2023-04-03T09:15:38.466Z,96791.22
2023-04-03T09:18:16.926Z,96835.22
2023-04-03T09:20:52.467Z,96838.88
2023-04-03T09:23:31.276Z,96832.84
2023-04-03T09:26:06.254Z,96849.63
2023-04-03T09:28:49.245Z,96816.84
2023-04-03T09:31:25.109Z,96830.13
2023-04-03T09:33:55.572Z,96827.16
2023-04-03T09:36:46.720Z,96830.53
2023-04-03T09:39:18.535Z,96820.09
2023-04-03T09:42:00.241Z,96821.25
2023-04-03T09:44:32.748Z,96763.59
2023-04-03T09:47:01.550Z,96798.16
2023-04-03T09:49:30.105Z,96801.84
2023-04-03T09:51:58.411Z,96811.31
2023-04-03T09:54:40.684Z,96813.31
2023-04-03T09:57:13.161Z,96819.06
2023-04-03T09:59:48.559Z,96822.88
2023-04-03T10:02:34.716Z,96821.81
2023-04-03T10:07:38.277Z,96817.00
2023-04-03T10:10:24.994Z,96828.91
2023-04-03T10:13:06.861Z,96816.06
2023-04-03T10:15:42.510Z,96813.25
2023-04-03T10:18:28.646Z,96814.63
2023-04-03T10:21:02.607Z,96811.22
2023-04-03T10:23:39.553Z,96812.75
2023-04-03T10:26:17.002Z,96803.84
2023-04-03T10:28:51.537Z,96807.97
2023-04-03T10:31:28.170Z,96812.13
2023-04-03T10:34:07.297Z,96806.84
2023-04-03T10:36:41.473Z,96809.38
2023-04-03T10:39:23.313Z,96802.91
2023-04-03T10:42:15.330Z,96809.94
2023-04-03T10:44:59.420Z,96803.75
2023-04-03T10:47:37.294Z,96802.22
2023-04-03T10:50:29.016Z,96799.34
2023-04-03T10:53:03.016Z,96738.97
2023-04-03T10:55:38.566Z,96796.44
2023-04-03T10:58:08.703Z,96789.66
2023-04-03T11:00:42.193Z,96789.56
2023-04-03T11:03:16.809Z,96804.19
2023-04-03T11:05:47.202Z,96797.13
2023-04-03T11:08:27.525Z,96786.19
2023-04-03T11:11:00.837Z,96784.94
2023-04-03T11:13:35.738Z,96792.78
2023-04-03T11:16:06.814Z,96783.16
2023-04-03T11:18:42.229Z,96739.53
2023-04-03T11:21:15.155Z,96788.47
2023-04-03T11:23:49.643Z,96777.84
2023-04-03T11:26:22.060Z,96773.53
2023-04-03T11:28:55.836Z,96776.19
2023-04-03T11:31:33.531Z,96774.53
2023-04-03T11:34:16.030Z,96761.38
2023-04-03T11:36:50.300Z,96744.13
2023-04-03T11:39:26.260Z,96761.78
2023-04-03T11:42:06.644Z,96722.25
2023-04-03T11:44:41.178Z,96770.41
2023-04-03T11:47:11.536Z,96762.38
2023-04-03T11:50:01.072Z,96768.78
2023-04-03T11:53:01.175Z,96764.72
2023-04-03T11:56:00.988Z,96772.28
2023-04-03T11:58:31.998Z,96759.75
2023-04-03T12:01:07.178Z,96752.03
2023-04-03T12:04:15.282Z,96750.63
2023-04-03T12:07:19.118Z,96751.22
2023-04-03T12:10:31.744Z,96747.91
2023-04-03T12:13:05.173Z,96748.16
2023-04-03T12:15:54.994Z,96748.94
2023-04-03T12:18:59.732Z,96739.78
2023-04-03T12:22:26.456Z,96741.41
2023-04-03T12:24:56.250Z,96738.97
2023-04-03T12:27:33.943Z,96694.91
2023-04-03T12:30:19.385Z,96735.09
2023-04-03T12:33:21.646Z,96733.28
2023-04-03T12:36:03.938Z,96731.41
2023-04-03T12:38:58.903Z,96730.22
2023-04-03T12:41:39.874Z,96720.25
2023-04-03T12:44:41.831Z,96722.75
2023-04-03T12:47:29.751Z,96724.72
2023-04-03T12:49:59.543Z,96720.22
2023-04-03T12:52:43.516Z,96715.72
2023-04-03T12:55:17.412Z,96723.66
2023-04-03T12:57:47.605Z,96722.69
2023-04-03T13:00:33.787Z,96722.56
2023-04-03T13:03:03.691Z,96709.59
2023-04-03T13:05:36.497Z,96701.56
2023-04-03T13:08:08.706Z,96704.88
2023-04-03T13:10:50.071Z,96702.19
2023-04-03T13:13:19.995Z,96705.88
2023-04-03T13:15:51.638Z,96703.81
2023-04-03T13:18:34.283Z,96708.56
2023-04-03T13:21:07.275Z,96702.31
2023-04-03T13:23:39.364Z,96716.28
2023-04-03T13:26:09.340Z,96714.03
2023-04-03T13:28:41.833Z,96709.31
2023-04-03T13:31:19.857Z,96709.44
2023-04-03T13:33:58.855Z,96685.28
2023-04-03T13:36:31.002Z,96711.59
2023-04-03T13:39:07.035Z,96697.91
2023-04-03T13:41:37.750Z,96690.13
2023-04-03T13:44:28.938Z,96697.69
2023-04-03T13:46:59.205Z,96676.97
2023-04-03T13:49:35.179Z,96695.63
2023-04-03T13:52:08.290Z,96702.03
2023-04-03T13:54:39.662Z,96684.75
2023-04-03T13:57:15.374Z,96664.06
2023-04-03T13:59:45.585Z,96689.25
2023-04-03T14:02:19.991Z,96663.19
2023-04-03T14:05:01.176Z,96688.06
2023-04-03T14:07:30.302Z,96685.59
2023-04-03T14:09:58.967Z,96681.88
2023-04-03T14:12:32.355Z,96678.22
2023-04-03T14:15:07.653Z,96683.56
2023-04-03T14:17:36.264Z,96675.78
2023-04-03T14:20:05.449Z,96683.38
2023-04-03T14:22:35.904Z,96688.47
2023-04-03T14:25:04.707Z,96689.28
2023-04-03T14:27:39.007Z,96681.22
2023-04-03T14:30:15.876Z,96686.94
2023-04-03T14:32:44.579Z,96681.84
2023-04-03T14:35:13.117Z,96679.00
2023-04-03T14:37:41.897Z,96672.06
2023-04-03T14:40:15.423Z,96662.03
2023-04-03T14:42:43.832Z,96676.41
2023-04-03T14:45:15.179Z,96674.53
2023-04-03T14:47:48.982Z,96631.28
2023-04-03T14:50:20.435Z,96676.16
2023-04-03T14:52:49.299Z,96671.66
2023-04-03T14:55:20.890Z,96674.13
2023-04-03T14:57:50.974Z,96669.63
2023-04-03T15:00:23.360Z,96669.56
2023-04-03T15:02:51.949Z,96673.03
2023-04-03T15:05:20.793Z,96682.69
2023-04-03T15:07:52.710Z,96671.19
2023-04-03T15:10:23.285Z,96672.88
2023-04-03T15:12:52.114Z,96660.13
2023-04-03T15:15:24.244Z,96647.50
2023-04-03T15:17:56.106Z,96659.16
2023-04-03T15:20:27.544Z,96670.03
2023-04-03T15:22:57.349Z,96663.84
2023-04-03T15:25:26.538Z,96659.91
2023-04-03T15:27:55.665Z,96649.00
2023-04-03T15:30:25.547Z,96677.72
2023-04-03T15:32:54.424Z,96662.50
2023-04-03T15:35:23.304Z,96674.03
2023-04-03T15:37:52.420Z,96668.31
2023-04-03T15:40:21.072Z,96668.28
2023-04-03T15:42:50.008Z,96670.28
2023-04-03T15:45:19.348Z,96670.84
2023-04-03T15:47:49.321Z,96670.50
2023-04-03T15:50:17.749Z,96662.13
2023-04-03T15:52:46.141Z,96653.13
2023-04-03T15:55:14.421Z,96666.03
2023-04-03T15:57:42.829Z,96671.09
2023-04-03T16:00:12.517Z,96667.06
2023-04-03T16:02:41.354Z,96667.47
2023-04-03T16:05:12.429Z,96671.19
2023-04-03T16:07:41.951Z,96667.94
2023-04-03T16:10:12.708Z,96644.34
2023-04-03T16:12:41.332Z,96665.16
2023-04-03T16:15:10.938Z,96653.66
2023-04-03T16:17:41.940Z,96627.47
2023-04-03T16:20:14.094Z,96660.03
2023-04-03T16:22:43.530Z,96666.00
2023-04-03T16:25:13.280Z,96664.88
2023-04-03T16:27:41.972Z,96668.41
2023-04-03T16:30:11.899Z,96670.34
2023-04-03T16:32:41.520Z,96646.94
2023-04-03T16:35:12.132Z,96660.84
2023-04-03T16:37:41.221Z,96668.97
2023-04-03T16:40:11.285Z,96669.00
2023-04-03T16:42:39.633Z,96672.41
2023-04-03T16:45:09.336Z,96673.97
2023-04-03T16:47:37.734Z,96677.53
2023-04-03T16:50:07.033Z,96682.78
2023-04-03T16:52:36.857Z,96683.69
2023-04-03T16:55:05.665Z,96678.03
2023-04-03T16:57:34.266Z,96689.25
2023-04-03T17:00:02.498Z,96672.66
2023-04-03T17:02:31.125Z,96668.00
2023-04-03T17:04:59.749Z,96675.13
2023-04-03T17:07:28.391Z,96674.91
2023-04-03T17:09:58.530Z,96675.38
2023-04-03T17:12:28.358Z,96680.75
2023-04-03T17:14:57.446Z,96674.84
2023-04-03T17:17:28.274Z,96625.53
2023-04-03T17:19:57.328Z,96666.31
2023-04-03T17:22:26.568Z,96671.34
2023-04-03T17:24:54.853Z,96673.31
2023-04-03T17:27:24.754Z,96663.72
2023-04-03T17:29:53.102Z,96661.81
2023-04-03T17:32:21.504Z,96673.97
2023-04-03T17:34:50.500Z,96677.50
2023-04-03T17:37:18.861Z,96685.09
2023-04-03T17:39:47.735Z,96683.56
2023-04-03T17:42:16.212Z,96686.78
2023-04-03T17:44:46.002Z,96683.81
2023-04-03T17:47:14.709Z,96682.28
2023-04-03T17:49:43.181Z,96678.56
2023-04-03T17:52:11.537Z,96680.16
2023-04-03T17:54:39.820Z,96683.34
2023-04-03T17:57:09.041Z,96688.06
2023-04-03T17:59:37.457Z,96586.34
2023-04-03T18:02:07.270Z,96690.72
2023-04-03T18:04:35.607Z,96692.69
2023-04-03T18:07:05.158Z,96688.81
2023-04-03T18:09:35.116Z,96692.81
2023-04-03T18:12:06.156Z,96688.88
2023-04-03T18:14:37.348Z,96692.84
2023-04-03T18:17:07.714Z,96689.56
2023-04-03T18:19:37.506Z,96695.84
2023-04-03T18:22:09.749Z,96696.84
2023-04-03T18:24:38.533Z,96684.34
2023-04-03T18:27:11.670Z,96688.75
2023-04-03T18:29:42.844Z,96683.44
2023-04-03T18:32:16.733Z,96652.88
2023-04-03T18:34:45.182Z,96703.22
2023-04-03T18:37:15.220Z,96685.91
2023-04-03T18:39:44.070Z,96698.38
2023-04-03T18:42:17.123Z,96685.72
2023-04-03T18:44:50.408Z,96652.09
2023-04-03T18:47:20.698Z,96696.63
2023-04-03T18:49:49.124Z,96701.78
2023-04-03T18:52:17.752Z,96701.78
2023-04-03T18:54:46.440Z,96706.69
2023-04-03T18:57:14.868Z,96707.16
2023-04-03T18:59:43.268Z,96706.03
2023-04-03T19:02:13.138Z,96704.56
2023-04-03T19:04:43.180Z,96704.44
2023-04-03T19:07:12.244Z,96707.47
2023-04-03T19:09:41.338Z,96708.50
2023-04-03T19:12:09.870Z,96600.88
2023-04-03T19:14:38.361Z,96710.63
2023-04-03T19:17:08.399Z,96705.88
2023-04-03T19:19:37.028Z,96701.06
2023-04-03T19:22:07.898Z,96711.78
2023-04-03T19:24:36.589Z,96710.59
2023-04-03T19:27:05.025Z,96716.56
2023-04-03T19:29:33.312Z,96719.44
2023-04-03T19:32:01.986Z,96714.88
2023-04-03T19:34:30.255Z,96656.00
2023-04-03T19:36:59.151Z,96722.94
2023-04-03T19:39:31.065Z,96715.25
2023-04-03T19:41:59.691Z,96725.78
2023-04-03T19:44:28.260Z,96723.31
2023-04-03T19:46:56.778Z,96724.28
2023-04-03T19:49:25.158Z,96725.41
2023-04-03T19:51:54.643Z,96726.53
2023-04-03T19:54:23.760Z,96720.31
2023-04-03T19:56:53.578Z,96726.53
2023-04-03T19:59:22.042Z,96724.69
2023-04-03T20:01:50.463Z,96717.13
2023-04-03T20:04:18.968Z,96718.31
2023-04-03T20:06:48.404Z,96725.28
2023-04-03T20:09:23.462Z,96716.94
2023-04-03T20:11:53.904Z,96724.66
2023-04-03T20:14:22.522Z,96701.69
2023-04-03T20:16:51.058Z,96710.38
2023-04-03T20:19:19.662Z,96727.81
2023-04-03T20:21:48.467Z,96717.56
2023-04-03T20:24:17.811Z,96723.00
2023-04-03T20:26:47.419Z,96712.56
2023-04-03T20:29:17.906Z,96712.34
2023-04-03T20:31:46.919Z,96714.59
2023-04-03T20:34:17.052Z,96723.00
2023-04-03T20:36:49.610Z,96719.50
2023-04-03T20:39:19.649Z,96665.28
2023-04-03T20:41:48.056Z,96679.63
2023-04-03T20:44:20.280Z,96709.72
2023-04-03T20:46:53.490Z,96714.50
2023-04-03T20:49:23.444Z,96711.22
2023-04-03T20:51:54.187Z,96703.72
2023-04-03T20:54:24.271Z,96657.88
2023-04-03T20:56:54.443Z,96705.78
2023-04-03T20:59:25.971Z,96705.59
2023-04-03T21:01:55.144Z,96701.31
2023-04-03T21:04:30.585Z,96703.72
2023-04-03T21:07:39.484Z,96691.25
2023-04-03T21:10:46.262Z,96687.97
2023-04-03T21:13:52.826Z,96687.44
2023-04-03T21:16:24.723Z,96684.59
2023-04-03T21:19:11.481Z,96686.25
2023-04-03T21:21:41.748Z,96677.41
2023-04-03T21:24:11.417Z,96690.38
2023-04-03T21:26:41.579Z,96685.19
2023-04-03T21:29:10.624Z,96677.81
2023-04-03T21:31:49.984Z,96690.50
2023-04-03T21:34:21.027Z,96682.81
2023-04-03T21:36:50.713Z,96661.59
2023-04-03T21:39:19.048Z,96682.44
2023-04-03T21:41:47.412Z,96674.03
2023-04-03T21:44:15.773Z,96672.22
2023-04-03T21:46:44.501Z,96652.09
2023-04-03T21:49:13.001Z,96641.50
2023-04-03T21:51:43.318Z,96675.50
2023-04-03T21:54:11.843Z,96675.25
2023-04-03T21:56:40.207Z,96647.66
2023-04-03T21:59:08.901Z,96668.91
2023-04-03T22:01:39.820Z,96664.25
2023-04-03T22:04:08.080Z,96659.03
2023-04-03T22:06:37.516Z,96558.56
2023-04-03T22:09:07.405Z,96655.19
2023-04-03T22:11:38.391Z,96668.06
2023-04-03T22:14:06.826Z,96671.38
2023-04-03T22:16:35.639Z,96668.06
2023-04-03T22:19:04.319Z,96664.16
2023-04-03T22:21:33.739Z,96658.50
2023-04-03T22:24:02.115Z,96667.53
2023-04-03T22:26:32.093Z,96658.56
2023-04-03T22:29:01.864Z,96661.41
2023-04-03T22:31:30.247Z,96659.81
2023-04-03T22:33:59.026Z,96630.94
2023-04-03T22:36:27.358Z,96653.72
2023-04-03T22:38:57.496Z,96664.34
2023-04-03T22:41:25.883Z,96650.59
2023-04-03T22:43:56.143Z,96653.34
2023-04-03T22:46:26.063Z,96648.56
2023-04-03T22:48:54.705Z,96657.78
2023-04-03T22:51:23.044Z,96655.50
2023-04-03T22:53:51.303Z,96647.94
2023-04-03T22:56:19.933Z,96647.56
2023-04-03T22:58:48.601Z,96643.13
2023-04-03T23:01:20.342Z,96637.19
2023-04-03T23:03:48.662Z,96637.31
2023-04-03T23:06:17.047Z,96636.75
2023-04-03T23:08:45.610Z,96636.19
2023-04-03T23:11:13.937Z,96600.53
2023-04-03T23:13:43.787Z,96637.13
2023-04-03T23:16:12.296Z,96643.75
2023-04-03T23:18:43.851Z,96633.06
2023-04-03T23:21:12.237Z,96586.97
2023-04-03T23:23:40.857Z,96639.31
2023-04-03T23:26:10.002Z,96598.41
2023-04-03T23:28:38.397Z,96634.63
2023-04-03T23:31:07.878Z,96634.75
2023-04-03T23:33:36.441Z,96639.75
2023-04-03T23:36:09.807Z,96620.59
2023-04-03T23:38:38.288Z,96621.06
2023-04-03T23:41:06.776Z,96642.59
2023-04-03T23:43:35.128Z,96639.38
2023-04-03T23:46:03.614Z,96632.84
2023-04-03T23:48:32.030Z,96639.38
2023-04-03T23:51:00.335Z,96640.78
2023-04-03T23:53:30.020Z,96639.75
2023-04-03T23:55:58.664Z,96635.47
2023-04-03T23:58:26.921Z,96631.56
